sensor_id;sensor_type;location;lat;lon;timestamp;pressure;altitude;pressure_sealevel;temperature
18713;BMP280;9485;49.386;8.674;2023-05-29T00:02:22;100423.50;;;21.54
18713;BMP280;9485;49.386;8.674;2023-05-29T00:07:44;100427.31;;;21.49
18713;BMP280;9485;49.386;8.674;2023-05-29T00:13:04;100420.41;;;21.44
18713;BMP280;9485;49.386;8.674;2023-05-29T00:18:27;100414.06;;;21.38
18713;BMP280;9485;49.386;8.674;2023-05-29T00:23:48;100415.22;;;21.35
18713;BMP280;9485;49.386;8.674;2023-05-29T00:29:08;100410.22;;;21.36
18713;BMP280;9485;49.386;8.674;2023-05-29T00:34:31;100407.16;;;21.34
18713;BMP280;9485;49.386;8.674;2023-05-29T00:39:53;100398.75;;;21.36
18713;BMP280;9485;49.386;8.674;2023-05-29T00:45:13;100403.75;;;21.35
18713;BMP280;9485;49.386;8.674;2023-05-29T00:50:36;100401.25;;;21.32
18713;BMP280;9485;49.386;8.674;2023-05-29T00:55:58;100397.22;;;21.35
18713;BMP280;9485;49.386;8.674;2023-05-29T01:01:20;100397.63;;;21.39
18713;BMP280;9485;49.386;8.674;2023-05-29T01:06:45;100390.34;;;21.38
18713;BMP280;9485;49.386;8.674;2023-05-29T01:12:22;100392.03;;;21.41
18713;BMP280;9485;49.386;8.674;2023-05-29T01:18:05;100375.59;;;21.41
18713;BMP280;9485;49.386;8.674;2023-05-29T01:23:45;100388.22;;;21.38
18713;BMP280;9485;49.386;8.674;2023-05-29T01:29:14;100370.97;;;21.38
18713;BMP280;9485;49.386;8.674;2023-05-29T01:34:36;100370.03;;;21.36
18713;BMP280;9485;49.386;8.674;2023-05-29T01:39:56;100373.84;;;21.38
18713;BMP280;9485;49.386;8.674;2023-05-29T01:45:20;100375.19;;;21.37
18713;BMP280;9485;49.386;8.674;2023-05-29T01:50:42;100355.63;;;21.21
18713;BMP280;9485;49.386;8.674;2023-05-29T01:56:05;100378.84;;;21.38
18713;BMP280;9485;49.386;8.674;2023-05-29T02:01:27;100376.72;;;21.31
18713;BMP280;9485;49.386;8.674;2023-05-29T02:06:49;100390.31;;;21.30
18713;BMP280;9485;49.386;8.674;2023-05-29T02:12:12;100395.47;;;21.17
18713;BMP280;9485;49.386;8.674;2023-05-29T02:17:34;100398.06;;;20.93
18713;BMP280;9485;49.386;8.674;2023-05-29T02:22:55;100407.25;;;20.63
18713;BMP280;9485;49.386;8.674;2023-05-29T02:28:18;100387.47;;;20.17
18713;BMP280;9485;49.386;8.674;2023-05-29T02:33:41;100402.69;;;20.05
18713;BMP280;9485;49.386;8.674;2023-05-29T02:39:02;100399.34;;;19.93
18713;BMP280;9485;49.386;8.674;2023-05-29T02:44:22;100413.53;;;19.78
18713;BMP280;9485;49.386;8.674;2023-05-29T02:49:45;100406.34;;;19.64
18713;BMP280;9485;49.386;8.674;2023-05-29T02:55:07;100409.50;;;19.54
18713;BMP280;9485;49.386;8.674;2023-05-29T03:00:27;100407.47;;;19.41
18713;BMP280;9485;49.386;8.674;2023-05-29T03:05:53;100408.63;;;19.25
18713;BMP280;9485;49.386;8.674;2023-05-29T03:11:13;100410.97;;;19.14
18713;BMP280;9485;49.386;8.674;2023-05-29T03:16:34;100419.28;;;18.91
18713;BMP280;9485;49.386;8.674;2023-05-29T03:21:56;100413.69;;;18.73
18713;BMP280;9485;49.386;8.674;2023-05-29T03:27:17;100410.09;;;18.60
18713;BMP280;9485;49.386;8.674;2023-05-29T03:32:40;100415.16;;;18.41
18713;BMP280;9485;49.386;8.674;2023-05-29T03:38:02;100425.47;;;18.18
18713;BMP280;9485;49.386;8.674;2023-05-29T03:43:23;100430.31;;;17.97
18713;BMP280;9485;49.386;8.674;2023-05-29T03:48:44;100431.91;;;17.80
18713;BMP280;9485;49.386;8.674;2023-05-29T03:54:06;100432.16;;;17.63
18713;BMP280;9485;49.386;8.674;2023-05-29T03:59:27;100445.13;;;17.64
18713;BMP280;9485;49.386;8.674;2023-05-29T04:04:48;100457.78;;;17.37
18713;BMP280;9485;49.386;8.674;2023-05-29T04:10:11;100468.06;;;17.28
18713;BMP280;9485;49.386;8.674;2023-05-29T04:15:32;100488.41;;;17.19
18713;BMP280;9485;49.386;8.674;2023-05-29T04:20:53;100479.22;;;17.07
18713;BMP280;9485;49.386;8.674;2023-05-29T04:26:16;100490.88;;;17.09
18713;BMP280;9485;49.386;8.674;2023-05-29T04:31:37;100498.63;;;17.09
18713;BMP280;9485;49.386;8.674;2023-05-29T04:36:58;100503.41;;;17.01
18713;BMP280;9485;49.386;8.674;2023-05-29T04:42:20;100508.28;;;17.06
18713;BMP280;9485;49.386;8.674;2023-05-29T04:47:42;100521.84;;;17.18
18713;BMP280;9485;49.386;8.674;2023-05-29T04:53:05;100524.38;;;17.27
18713;BMP280;9485;49.386;8.674;2023-05-29T04:58:27;100531.00;;;17.35
18713;BMP280;9485;49.386;8.674;2023-05-29T05:03:47;100537.63;;;17.43
18713;BMP280;9485;49.386;8.674;2023-05-29T05:09:08;100534.16;;;17.50
18713;BMP280;9485;49.386;8.674;2023-05-29T05:14:30;100538.06;;;17.65
18713;BMP280;9485;49.386;8.674;2023-05-29T05:19:52;100543.31;;;17.80
18713;BMP280;9485;49.386;8.674;2023-05-29T05:25:13;100541.72;;;17.97
18713;BMP280;9485;49.386;8.674;2023-05-29T05:30:35;100544.50;;;18.15
18713;BMP280;9485;49.386;8.674;2023-05-29T05:35:57;100551.50;;;18.33
18713;BMP280;9485;49.386;8.674;2023-05-29T05:41:21;100562.09;;;18.51
18713;BMP280;9485;49.386;8.674;2023-05-29T05:46:45;100561.56;;;18.65
18713;BMP280;9485;49.386;8.674;2023-05-29T05:52:08;100554.31;;;18.77
18713;BMP280;9485;49.386;8.674;2023-05-29T05:57:29;100565.84;;;18.97
18713;BMP280;9485;49.386;8.674;2023-05-29T06:02:54;100555.63;;;19.15
18713;BMP280;9485;49.386;8.674;2023-05-29T06:08:28;100572.91;;;19.35
18713;BMP280;9485;49.386;8.674;2023-05-29T06:13:50;100570.66;;;19.54
18713;BMP280;9485;49.386;8.674;2023-05-29T06:19:22;100569.13;;;19.86
18713;BMP280;9485;49.386;8.674;2023-05-29T06:24:49;100574.63;;;20.18
18713;BMP280;9485;49.386;8.674;2023-05-29T06:30:12;100569.16;;;20.47
18713;BMP280;9485;49.386;8.674;2023-05-29T06:35:34;100572.25;;;20.77
18713;BMP280;9485;49.386;8.674;2023-05-29T06:40:55;100580.09;;;21.05
18713;BMP280;9485;49.386;8.674;2023-05-29T06:46:16;100581.97;;;21.30
18713;BMP280;9485;49.386;8.674;2023-05-29T06:51:38;100576.03;;;21.63
18713;BMP280;9485;49.386;8.674;2023-05-29T06:57:16;100587.81;;;22.02
18713;BMP280;9485;49.386;8.674;2023-05-29T07:02:37;100596.94;;;22.36
18713;BMP280;9485;49.386;8.674;2023-05-29T07:07:59;100609.22;;;22.67
18713;BMP280;9485;49.386;8.674;2023-05-29T07:13:20;100604.84;;;25.01
18713;BMP280;9485;49.386;8.674;2023-05-29T07:18:42;100624.25;;;28.79
18713;BMP280;9485;49.386;8.674;2023-05-29T07:24:04;100624.94;;;30.92
18713;BMP280;9485;49.386;8.674;2023-05-29T07:29:25;100630.94;;;33.29
18713;BMP280;9485;49.386;8.674;2023-05-29T07:34:47;100643.63;;;34.47
18713;BMP280;9485;49.386;8.674;2023-05-29T07:40:11;100640.69;;;35.72
18713;BMP280;9485;49.386;8.674;2023-05-29T07:45:50;100645.19;;;37.55
18713;BMP280;9485;49.386;8.674;2023-05-29T07:51:11;100658.09;;;37.85
18713;BMP280;9485;49.386;8.674;2023-05-29T07:56:38;100654.56;;;38.54
18713;BMP280;9485;49.386;8.674;2023-05-29T08:02:00;100652.53;;;39.31
18713;BMP280;9485;49.386;8.674;2023-05-29T08:07:49;100658.16;;;40.28
18713;BMP280;9485;49.386;8.674;2023-05-29T08:13:12;100653.72;;;40.88
18713;BMP280;9485;49.386;8.674;2023-05-29T08:18:35;100659.16;;;41.33
18713;BMP280;9485;49.386;8.674;2023-05-29T08:23:57;100648.16;;;41.04
18713;BMP280;9485;49.386;8.674;2023-05-29T08:29:20;100640.75;;;40.72
18713;BMP280;9485;49.386;8.674;2023-05-29T08:34:41;100640.13;;;40.16
18713;BMP280;9485;49.386;8.674;2023-05-29T08:40:06;100644.50;;;40.74
18713;BMP280;9485;49.386;8.674;2023-05-29T08:45:34;100638.28;;;41.27
18713;BMP280;9485;49.386;8.674;2023-05-29T08:51:02;100641.22;;;41.25
18713;BMP280;9485;49.386;8.674;2023-05-29T08:56:23;100632.19;;;41.54
18713;BMP280;9485;49.386;8.674;2023-05-29T09:01:45;100635.50;;;41.35
18713;BMP280;9485;49.386;8.674;2023-05-29T09:07:07;100630.97;;;41.32
18713;BMP280;9485;49.386;8.674;2023-05-29T09:12:30;100622.25;;;40.12
18713;BMP280;9485;49.386;8.674;2023-05-29T09:17:55;100622.44;;;37.77
18713;BMP280;9485;49.386;8.674;2023-05-29T09:23:18;100612.28;;;36.46
18713;BMP280;9485;49.386;8.674;2023-05-29T09:28:39;100613.69;;;35.76
18713;BMP280;9485;49.386;8.674;2023-05-29T09:34:03;100619.56;;;35.10
18713;BMP280;9485;49.386;8.674;2023-05-29T09:39:24;100619.53;;;34.64
18713;BMP280;9485;49.386;8.674;2023-05-29T09:44:49;100615.56;;;34.57
18713;BMP280;9485;49.386;8.674;2023-05-29T09:50:18;100601.38;;;34.83
18713;BMP280;9485;49.386;8.674;2023-05-29T09:55:41;100610.06;;;34.96
18713;BMP280;9485;49.386;8.674;2023-05-29T10:01:02;100604.09;;;35.10
18713;BMP280;9485;49.386;8.674;2023-05-29T10:06:26;100606.47;;;35.13
18713;BMP280;9485;49.386;8.674;2023-05-29T10:11:49;100614.16;;;34.14
18713;BMP280;9485;49.386;8.674;2023-05-29T10:17:15;100613.25;;;33.14
18713;BMP280;9485;49.386;8.674;2023-05-29T10:22:45;100606.72;;;33.02
18713;BMP280;9485;49.386;8.674;2023-05-29T10:28:07;100599.28;;;33.26
18713;BMP280;9485;49.386;8.674;2023-05-29T10:33:48;100601.44;;;33.39
18713;BMP280;9485;49.386;8.674;2023-05-29T10:39:13;100590.44;;;33.53
18713;BMP280;9485;49.386;8.674;2023-05-29T10:44:39;100591.09;;;33.64
18713;BMP280;9485;49.386;8.674;2023-05-29T10:50:04;100594.69;;;33.92
18713;BMP280;9485;49.386;8.674;2023-05-29T10:55:36;100591.28;;;34.26
18713;BMP280;9485;49.386;8.674;2023-05-29T11:00:57;100585.13;;;34.36
18713;BMP280;9485;49.386;8.674;2023-05-29T11:06:20;100580.13;;;34.23
18713;BMP280;9485;49.386;8.674;2023-05-29T11:11:44;100586.31;;;34.44
18713;BMP280;9485;49.386;8.674;2023-05-29T11:17:06;100582.69;;;34.45
18713;BMP280;9485;49.386;8.674;2023-05-29T11:22:44;100573.38;;;34.64
18713;BMP280;9485;49.386;8.674;2023-05-29T11:28:09;100587.75;;;34.89
18713;BMP280;9485;49.386;8.674;2023-05-29T11:33:31;100580.59;;;35.25
18713;BMP280;9485;49.386;8.674;2023-05-29T11:38:53;100581.44;;;35.27
18713;BMP280;9485;49.386;8.674;2023-05-29T11:44:15;100579.34;;;35.30
18713;BMP280;9485;49.386;8.674;2023-05-29T11:49:37;100589.75;;;35.48
18713;BMP280;9485;49.386;8.674;2023-05-29T11:55:06;100583.97;;;35.68
18713;BMP280;9485;49.386;8.674;2023-05-29T12:00:34;100587.50;;;35.64
18713;BMP280;9485;49.386;8.674;2023-05-29T12:05:56;100586.75;;;35.81
18713;BMP280;9485;49.386;8.674;2023-05-29T12:11:23;100575.16;;;35.68
18713;BMP280;9485;49.386;8.674;2023-05-29T12:16:46;100597.84;;;36.00
18713;BMP280;9485;49.386;8.674;2023-05-29T12:22:07;100580.09;;;36.33
18713;BMP280;9485;49.386;8.674;2023-05-29T12:27:28;100590.34;;;36.49
18713;BMP280;9485;49.386;8.674;2023-05-29T12:32:52;100580.31;;;36.56
18713;BMP280;9485;49.386;8.674;2023-05-29T12:38:13;100573.91;;;36.25
18713;BMP280;9485;49.386;8.674;2023-05-29T12:43:35;100572.53;;;36.28
18713;BMP280;9485;49.386;8.674;2023-05-29T12:48:57;100581.13;;;36.22
18713;BMP280;9485;49.386;8.674;2023-05-29T12:54:18;100572.25;;;36.39
18713;BMP280;9485;49.386;8.674;2023-05-29T12:59:39;100565.59;;;36.19
18713;BMP280;9485;49.386;8.674;2023-05-29T13:05:01;100553.47;;;35.09
18713;BMP280;9485;49.386;8.674;2023-05-29T13:10:24;100560.81;;;35.43
18713;BMP280;9485;49.386;8.674;2023-05-29T13:15:45;100555.13;;;35.97
18713;BMP280;9485;49.386;8.674;2023-05-29T13:21:07;100559.41;;;36.48
18713;BMP280;9485;49.386;8.674;2023-05-29T13:26:28;100559.38;;;36.85
18713;BMP280;9485;49.386;8.674;2023-05-29T13:31:48;100559.66;;;37.12
18713;BMP280;9485;49.386;8.674;2023-05-29T13:37:11;100559.88;;;37.18
18713;BMP280;9485;49.386;8.674;2023-05-29T13:42:33;100544.91;;;36.91
18713;BMP280;9485;49.386;8.674;2023-05-29T13:47:54;100543.41;;;36.90
18713;BMP280;9485;49.386;8.674;2023-05-29T13:53:17;100541.28;;;36.92
18713;BMP280;9485;49.386;8.674;2023-05-29T13:58:38;100539.38;;;37.01
18713;BMP280;9485;49.386;8.674;2023-05-29T14:03:59;100538.72;;;37.02
18713;BMP280;9485;49.386;8.674;2023-05-29T14:09:22;100530.72;;;37.26
18713;BMP280;9485;49.386;8.674;2023-05-29T14:14:46;100526.00;;;37.17
18713;BMP280;9485;49.386;8.674;2023-05-29T14:20:08;100527.97;;;37.11
18713;BMP280;9485;49.386;8.674;2023-05-29T14:25:31;100522.75;;;36.71
18713;BMP280;9485;49.386;8.674;2023-05-29T14:30:52;100534.00;;;36.20
18713;BMP280;9485;49.386;8.674;2023-05-29T14:36:13;100527.47;;;35.52
18713;BMP280;9485;49.386;8.674;2023-05-29T14:41:35;100519.34;;;34.69
18713;BMP280;9485;49.386;8.674;2023-05-29T14:46:56;100508.09;;;33.73
18713;BMP280;9485;49.386;8.674;2023-05-29T14:52:16;100505.25;;;32.91
18713;BMP280;9485;49.386;8.674;2023-05-29T14:57:39;100506.81;;;32.40
18713;BMP280;9485;49.386;8.674;2023-05-29T15:02:59;100506.19;;;32.03
18713;BMP280;9485;49.386;8.674;2023-05-29T15:08:22;100497.66;;;31.69
18713;BMP280;9485;49.386;8.674;2023-05-29T15:13:44;100493.34;;;31.34
18713;BMP280;9485;49.386;8.674;2023-05-29T15:19:05;100503.66;;;31.24
18713;BMP280;9485;49.386;8.674;2023-05-29T15:24:26;100491.94;;;30.99
18713;BMP280;9485;49.386;8.674;2023-05-29T15:29:48;100472.00;;;30.59
18713;BMP280;9485;49.386;8.674;2023-05-29T15:35:11;100477.72;;;30.46
18713;BMP280;9485;49.386;8.674;2023-05-29T15:40:32;100485.91;;;30.38
18713;BMP280;9485;49.386;8.674;2023-05-29T15:45:54;100485.28;;;30.16
18713;BMP280;9485;49.386;8.674;2023-05-29T15:51:15;100478.94;;;29.97
18713;BMP280;9485;49.386;8.674;2023-05-29T15:56:35;100475.72;;;29.81
18713;BMP280;9485;49.386;8.674;2023-05-29T16:01:58;100475.06;;;29.71
18713;BMP280;9485;49.386;8.674;2023-05-29T16:07:45;100478.47;;;29.68
18713;BMP280;9485;49.386;8.674;2023-05-29T16:13:08;100470.38;;;29.67
18713;BMP280;9485;49.386;8.674;2023-05-29T16:18:30;100462.13;;;29.63
18713;BMP280;9485;49.386;8.674;2023-05-29T16:23:51;100466.66;;;29.55
18713;BMP280;9485;49.386;8.674;2023-05-29T16:29:17;100472.72;;;29.47
18713;BMP280;9485;49.386;8.674;2023-05-29T16:34:40;100467.75;;;29.38
18713;BMP280;9485;49.386;8.674;2023-05-29T16:40:00;100447.91;;;29.14
18713;BMP280;9485;49.386;8.674;2023-05-29T16:45:22;100462.66;;;29.06
18713;BMP280;9485;49.386;8.674;2023-05-29T16:50:45;100463.50;;;28.97
18713;BMP280;9485;49.386;8.674;2023-05-29T16:56:06;100455.84;;;28.81
18713;BMP280;9485;49.386;8.674;2023-05-29T17:01:27;100464.50;;;28.60
18713;BMP280;9485;49.386;8.674;2023-05-29T17:06:49;100455.44;;;28.45
18713;BMP280;9485;49.386;8.674;2023-05-29T17:12:10;100460.28;;;28.31
18713;BMP280;9485;49.386;8.674;2023-05-29T17:17:32;100467.16;;;28.16
18713;BMP280;9485;49.386;8.674;2023-05-29T17:22:55;100472.28;;;28.07
18713;BMP280;9485;49.386;8.674;2023-05-29T17:28:16;100474.44;;;27.97
18713;BMP280;9485;49.386;8.674;2023-05-29T17:33:37;100491.47;;;27.81
18713;BMP280;9485;49.386;8.674;2023-05-29T17:38:59;100486.75;;;27.76
18713;BMP280;9485;49.386;8.674;2023-05-29T17:44:20;100490.59;;;27.69
18713;BMP280;9485;49.386;8.674;2023-05-29T17:49:41;100498.34;;;27.57
18713;BMP280;9485;49.386;8.674;2023-05-29T17:55:06;100498.84;;;27.44
18713;BMP280;9485;49.386;8.674;2023-05-29T18:00:26;100511.81;;;27.25
18713;BMP280;9485;49.386;8.674;2023-05-29T18:05:48;100496.22;;;26.92
18713;BMP280;9485;49.386;8.674;2023-05-29T18:11:11;100496.78;;;26.53
18713;BMP280;9485;49.386;8.674;2023-05-29T18:16:34;100502.59;;;26.26
18713;BMP280;9485;49.386;8.674;2023-05-29T18:21:55;100505.72;;;26.11
18713;BMP280;9485;49.386;8.674;2023-05-29T18:27:18;100512.25;;;26.02
18713;BMP280;9485;49.386;8.674;2023-05-29T18:32:40;100508.28;;;25.98
18713;BMP280;9485;49.386;8.674;2023-05-29T18:38:02;100508.53;;;25.92
18713;BMP280;9485;49.386;8.674;2023-05-29T18:43:24;100491.06;;;25.74
18713;BMP280;9485;49.386;8.674;2023-05-29T18:48:45;100513.19;;;25.79
18713;BMP280;9485;49.386;8.674;2023-05-29T18:54:06;100515.06;;;25.67
18713;BMP280;9485;49.386;8.674;2023-05-29T18:59:30;100517.47;;;25.61
18713;BMP280;9485;49.386;8.674;2023-05-29T19:04:51;100519.34;;;25.49
18713;BMP280;9485;49.386;8.674;2023-05-29T19:10:12;100528.56;;;25.38
18713;BMP280;9485;49.386;8.674;2023-05-29T19:15:34;100543.53;;;25.27
18713;BMP280;9485;49.386;8.674;2023-05-29T19:20:55;100549.03;;;25.15
18713;BMP280;9485;49.386;8.674;2023-05-29T19:26:16;100555.13;;;25.02
18713;BMP280;9485;49.386;8.674;2023-05-29T19:31:37;100553.34;;;24.90
18713;BMP280;9485;49.386;8.674;2023-05-29T19:36:58;100564.63;;;24.79
18713;BMP280;9485;49.386;8.674;2023-05-29T19:42:19;100559.19;;;24.66
18713;BMP280;9485;49.386;8.674;2023-05-29T19:47:44;100568.91;;;24.53
18713;BMP280;9485;49.386;8.674;2023-05-29T19:53:05;100575.13;;;24.42
18713;BMP280;9485;49.386;8.674;2023-05-29T19:58:25;100585.25;;;24.26
18713;BMP280;9485;49.386;8.674;2023-05-29T20:03:47;100584.00;;;24.13
18713;BMP280;9485;49.386;8.674;2023-05-29T20:09:08;100608.13;;;24.00
18713;BMP280;9485;49.386;8.674;2023-05-29T20:14:28;100615.28;;;23.92
18713;BMP280;9485;49.386;8.674;2023-05-29T20:19:51;100622.41;;;23.83
18713;BMP280;9485;49.386;8.674;2023-05-29T20:25:13;100622.47;;;23.76
18713;BMP280;9485;49.386;8.674;2023-05-29T20:30:35;100624.22;;;23.64
18713;BMP280;9485;49.386;8.674;2023-05-29T20:35:57;100627.91;;;23.57
18713;BMP280;9485;49.386;8.674;2023-05-29T20:41:19;100625.97;;;23.52
18713;BMP280;9485;49.386;8.674;2023-05-29T20:46:41;100615.06;;;23.43
18713;BMP280;9485;49.386;8.674;2023-05-29T20:52:03;100612.97;;;23.36
18713;BMP280;9485;49.386;8.674;2023-05-29T20:57:26;100619.88;;;23.33
18713;BMP280;9485;49.386;8.674;2023-05-29T21:02:47;100627.38;;;23.29
18713;BMP280;9485;49.386;8.674;2023-05-29T21:08:09;100617.25;;;23.20
18713;BMP280;9485;49.386;8.674;2023-05-29T21:13:31;100611.50;;;23.13
18713;BMP280;9485;49.386;8.674;2023-05-29T21:18:52;100624.75;;;23.08
18713;BMP280;9485;49.386;8.674;2023-05-29T21:24:14;100624.19;;;23.02
18713;BMP280;9485;49.386;8.674;2023-05-29T21:29:35;100617.25;;;22.90
18713;BMP280;9485;49.386;8.674;2023-05-29T21:34:56;100621.28;;;22.80
18713;BMP280;9485;49.386;8.674;2023-05-29T21:40:17;100627.06;;;22.72
18713;BMP280;9485;49.386;8.674;2023-05-29T21:45:39;100634.94;;;22.65
18713;BMP280;9485;49.386;8.674;2023-05-29T21:51:02;100636.06;;;22.54
18713;BMP280;9485;49.386;8.674;2023-05-29T21:56:24;100646.63;;;22.52
18713;BMP280;9485;49.386;8.674;2023-05-29T22:01:45;100646.44;;;22.42
18713;BMP280;9485;49.386;8.674;2023-05-29T22:07:07;100641.97;;;22.34
18713;BMP280;9485;49.386;8.674;2023-05-29T22:12:30;100641.00;;;22.24
18713;BMP280;9485;49.386;8.674;2023-05-29T22:17:51;100646.69;;;22.16
18713;BMP280;9485;49.386;8.674;2023-05-29T22:23:11;100641.69;;;22.09
18713;BMP280;9485;49.386;8.674;2023-05-29T22:28:33;100644.41;;;22.07
18713;BMP280;9485;49.386;8.674;2023-05-29T22:33:54;100654.53;;;22.01
18713;BMP280;9485;49.386;8.674;2023-05-29T22:39:15;100649.69;;;21.89
18713;BMP280;9485;49.386;8.674;2023-05-29T22:44:37;100656.38;;;21.76
18713;BMP280;9485;49.386;8.674;2023-05-29T22:49:57;100660.53;;;21.68
18713;BMP280;9485;49.386;8.674;2023-05-29T22:55:18;100665.31;;;21.65
18713;BMP280;9485;49.386;8.674;2023-05-29T23:00:40;100672.56;;;21.59
18713;BMP280;9485;49.386;8.674;2023-05-29T23:06:00;100677.34;;;21.56
18713;BMP280;9485;49.386;8.674;2023-05-29T23:11:21;100682.44;;;21.50
18713;BMP280;9485;49.386;8.674;2023-05-29T23:16:43;100690.88;;;21.48
18713;BMP280;9485;49.386;8.674;2023-05-29T23:22:05;100681.81;;;21.44
18713;BMP280;9485;49.386;8.674;2023-05-29T23:27:25;100695.22;;;21.42
18713;BMP280;9485;49.386;8.674;2023-05-29T23:32:47;100702.66;;;21.37
18713;BMP280;9485;49.386;8.674;2023-05-29T23:38:09;100698.41;;;21.31
18713;BMP280;9485;49.386;8.674;2023-05-29T23:43:31;100705.03;;;21.18
18713;BMP280;9485;49.386;8.674;2023-05-29T23:48:54;100709.44;;;21.19
18713;BMP280;9485;49.386;8.674;2023-05-29T23:54:14;100714.91;;;21.10
18713;BMP280;9485;49.386;8.674;2023-05-29T23:59:35;100712.91;;;20.98
